createdAt,value
2016-10-11T00:00:52.856Z,0
2016-10-11T00:01:52.874Z,0
2016-10-11T00:02:52.894Z,0
2016-10-11T00:03:52.909Z,0
2016-10-11T00:04:52.617Z,0
2016-10-11T00:05:52.943Z,0
2016-10-11T00:06:52.336Z,0
2016-10-11T00:07:52.980Z,0
2016-10-11T00:08:52.687Z,0
2016-10-11T00:09:52.715Z,0
2016-10-11T00:10:52.409Z,0
2016-10-11T00:11:52.427Z,0
2016-10-11T00:12:52.443Z,0
2016-10-11T00:13:52.460Z,0
2016-10-11T00:14:52.483Z,0
2016-10-11T00:15:52.820Z,0
2016-10-11T00:16:53.148Z,0
2016-10-11T00:17:52.847Z,0
2016-10-11T00:18:53.519Z,0
2016-10-11T00:19:53.521Z,0
2016-10-11T00:20:52.592Z,0
2016-10-11T00:21:53.252Z,0
2016-10-11T00:22:52.314Z,0
2016-10-11T00:23:52.964Z,0
2016-10-11T00:24:52.984Z,0
2016-10-11T00:25:52.368Z,0
2016-10-11T00:26:52.712Z,0
2016-10-11T00:27:52.433Z,0
2016-10-11T00:28:53.692Z,0
2016-10-11T00:29:53.077Z,0
2016-10-11T00:30:53.101Z,0
2016-10-11T00:31:52.794Z,0
2016-10-11T00:32:53.129Z,0
2016-10-11T00:33:52.833Z,0
2016-10-11T00:34:53.797Z,0
2016-10-11T00:35:53.189Z,0
2016-10-11T00:36:52.886Z,0
2016-10-11T00:37:53.218Z,0
2016-10-11T00:38:53.866Z,0
2016-10-11T00:39:53.574Z,0
2016-10-11T00:40:52.646Z,0
2016-10-11T00:41:52.977Z,0
2016-10-11T00:42:52.682Z,0
2016-10-11T00:43:53.013Z,0
2016-10-11T00:44:53.349Z,0
2016-10-11T00:45:53.368Z,0
2016-10-11T00:46:53.398Z,0
2016-10-11T00:47:53.405Z,0
2016-10-11T00:48:54.078Z,0
2016-10-11T00:49:53.446Z,0
2016-10-11T00:50:53.145Z,0
2016-10-11T00:51:53.792Z,0
2016-10-11T00:52:53.184Z,0
2016-10-11T00:53:54.143Z,0
2016-10-11T00:54:53.553Z,0
2016-10-11T00:55:53.876Z,0
2016-10-11T00:56:54.209Z,0
2016-10-11T00:57:53.583Z,0
2016-10-11T00:58:53.607Z,0
2016-10-11T00:59:52.988Z,0
2016-10-11T01:00:53.664Z,0
2016-10-11T01:01:53.349Z,0
2016-10-11T01:02:53.046Z,0
2016-10-11T01:03:54.328Z,0
2016-10-11T01:04:54.028Z,0
2016-10-11T01:05:53.732Z,0
2016-10-11T01:06:53.440Z,0
2016-10-11T01:07:53.459Z,0
2016-10-11T01:08:53.470Z,0
2016-10-11T01:09:53.497Z,0
2016-10-11T01:10:53.509Z,0
2016-10-11T01:11:53.852Z,0
2016-10-11T01:12:53.554Z,0
2016-10-11T01:13:53.561Z,0
2016-10-11T01:14:53.897Z,0
2016-10-11T01:15:54.240Z,0
2016-10-11T01:16:53.621Z,0
2016-10-11T01:17:53.638Z,0
2016-10-11T01:18:53.657Z,0
2016-10-11T01:19:54.303Z,0
2016-10-11T01:20:54.325Z,0
2016-10-11T01:21:53.718Z,0
2016-10-11T01:22:54.063Z,0
2016-10-11T01:23:54.082Z,0
2016-10-11T01:24:54.077Z,0
2016-10-11T01:25:54.112Z,0
2016-10-11T01:26:53.806Z,0
2016-10-11T01:27:53.844Z,0
2016-10-11T01:28:54.789Z,0
2016-10-11T01:29:54.168Z,0
2016-10-11T01:30:53.888Z,0
2016-10-11T01:31:54.529Z,0
2016-10-11T01:32:54.546Z,0
2016-10-11T01:33:54.250Z,0
2016-10-11T01:34:54.583Z,0
2016-10-11T01:35:54.287Z,0
2016-10-11T01:36:54.616Z,0
2016-10-11T01:37:54.318Z,0
2016-10-11T01:38:54.973Z,0
2016-10-11T01:39:53.727Z,0
2016-10-11T01:40:54.060Z,0
2016-10-11T01:41:54.078Z,0
2016-10-11T01:42:54.415Z,0
2016-10-11T01:43:54.438Z,0
2016-10-11T01:45:09.014Z,0
2016-10-11T01:45:54.804Z,0
2016-10-11T01:46:54.505Z,0
2016-10-11T01:47:54.503Z,0
2016-10-11T01:48:54.200Z,0
2016-10-11T01:49:54.225Z,0
2016-10-11T01:50:54.558Z,0
2016-10-11T01:51:55.208Z,0
2016-10-11T01:52:54.285Z,0
2016-10-11T01:53:54.606Z,0
2016-10-11T01:54:54.949Z,0
2016-10-11T01:55:54.963Z,0
2016-10-11T01:56:54.980Z,0
2016-10-11T01:57:54.701Z,0
2016-10-11T01:58:54.401Z,0
2016-10-11T01:59:54.726Z,0
2016-10-11T02:00:54.755Z,0
2016-10-11T02:01:54.758Z,0
2016-10-11T02:02:55.091Z,0
2016-10-11T02:03:54.479Z,0
2016-10-11T02:04:54.824Z,0
2016-10-11T02:05:54.512Z,0
2016-10-11T02:06:54.545Z,0
2016-10-11T02:07:54.244Z,0
2016-10-11T02:08:54.570Z,0
2016-10-11T02:09:54.268Z,0
2016-10-11T02:10:54.324Z,0
2016-10-11T02:11:54.942Z,0
2016-10-11T02:12:54.958Z,0
2016-10-11T02:13:54.978Z,0
2016-10-11T02:14:54.703Z,0
2016-10-11T02:15:55.328Z,0
2016-10-11T02:16:54.731Z,0
2016-10-11T02:17:55.059Z,0
2016-10-11T02:18:54.443Z,0
2016-10-11T02:19:55.433Z,0
2016-10-11T02:20:54.809Z,0
2016-10-11T02:21:55.438Z,0
2016-10-11T02:22:55.176Z,0
2016-10-11T02:23:55.170Z,0
2016-10-11T02:24:54.547Z,0
2016-10-11T02:25:55.205Z,0
2016-10-11T02:26:54.896Z,0
2016-10-11T02:27:54.917Z,0
2016-10-11T02:28:54.619Z,0
2016-10-11T02:29:54.955Z,0
2016-10-11T02:30:55.919Z,0
2016-10-11T02:31:55.014Z,0
2016-10-11T02:32:55.018Z,0
2016-10-11T02:33:55.048Z,0
2016-10-11T02:34:55.044Z,0
2016-10-11T02:35:55.376Z,0
2016-10-11T02:36:55.397Z,0
2016-10-11T02:37:55.725Z,0
2016-10-11T02:38:56.069Z,0
2016-10-11T02:39:55.764Z,0
2016-10-11T02:40:55.470Z,0
2016-10-11T02:41:55.176Z,0
2016-10-11T02:42:54.873Z,0
2016-10-11T02:43:55.523Z,0
2016-10-11T02:44:55.222Z,0
2016-10-11T02:45:54.930Z,0
2016-10-11T02:46:55.258Z,0
2016-10-11T02:47:55.595Z,0
2016-10-11T02:48:55.933Z,0
2016-10-11T02:49:55.631Z,0
2016-10-11T02:50:55.968Z,0
2016-10-11T02:51:55.672Z,0
2016-10-11T02:52:56.002Z,0
2016-10-11T02:53:55.724Z,0
2016-10-11T02:54:55.722Z,0
2016-10-11T02:55:55.126Z,0
2016-10-11T02:56:55.757Z,0
2016-10-11T02:57:56.091Z,0
2016-10-11T02:58:56.113Z,0
2016-10-11T02:59:56.126Z,0
2016-10-11T03:00:55.539Z,0
2016-10-11T03:01:55.535Z,0
2016-10-11T03:02:56.191Z,0
2016-10-11T03:03:55.890Z,0
2016-10-11T03:04:56.223Z,0
2016-10-11T03:05:55.604Z,0
2016-10-11T03:06:56.265Z,0
2016-10-11T03:07:55.647Z,0
2016-10-11T03:08:56.294Z,0
2016-10-11T03:09:56.309Z,0
2016-10-11T03:10:56.329Z,0
2016-10-11T03:11:56.030Z,0
2016-10-11T03:12:55.732Z,0
2016-10-11T03:13:56.068Z,0
2016-10-11T03:14:55.768Z,0
2016-10-11T03:15:56.106Z,0
2016-10-11T03:16:56.129Z,0
2016-10-11T03:17:55.825Z,0
2016-10-11T03:18:55.844Z,0
2016-10-11T03:19:56.498Z,0
2016-10-11T03:20:55.890Z,0
2016-10-11T03:21:56.207Z,0
2016-10-11T03:22:55.922Z,0
2016-10-11T03:23:56.252Z,0
2016-10-11T03:24:55.949Z,0
2016-10-11T03:25:56.292Z,0
2016-10-11T03:26:56.928Z,0
2016-10-11T03:27:56.321Z,0
2016-10-11T03:28:56.346Z,0
2016-10-11T03:29:57.001Z,0
2016-10-11T03:30:56.065Z,0
2016-10-11T03:31:56.081Z,0
2016-10-11T03:32:56.092Z,0
2016-10-11T03:33:57.069Z,0
2016-10-11T03:34:55.816Z,0
2016-10-11T03:35:57.104Z,0
2016-10-11T03:36:56.170Z,0
2016-10-11T03:37:56.829Z,0
2016-10-11T03:38:56.531Z,0
2016-10-11T03:39:56.858Z,0
2016-10-11T03:40:56.913Z,0
2016-10-11T03:41:57.200Z,0
2016-10-11T03:42:56.605Z,0
2016-10-11T03:43:56.612Z,0
2016-10-11T03:44:56.628Z,0
2016-10-11T03:45:56.338Z,0
2016-10-11T03:46:57.182Z,0
2016-10-11T03:47:56.685Z,0
2016-10-11T03:48:56.383Z,0
2016-10-11T03:49:57.359Z,0
2016-10-11T03:50:56.430Z,0
2016-10-11T03:51:56.761Z,0
2016-10-11T03:52:56.464Z,0
2016-10-11T03:53:56.812Z,0
2016-10-11T03:54:56.818Z,0
2016-10-11T03:55:56.820Z,0
2016-10-11T03:56:57.165Z,0
2016-10-11T03:57:57.176Z,0
2016-10-11T03:58:57.191Z,0
2016-10-11T03:59:57.227Z,0
2016-10-11T04:00:56.608Z,0
2016-10-11T04:01:56.623Z,0
2016-10-11T04:02:56.968Z,0
2016-10-11T04:03:57.293Z,0
2016-10-11T04:04:56.690Z,0
2016-10-11T04:05:57.027Z,0
2016-10-11T04:06:57.030Z,0
2016-10-11T04:07:56.724Z,0
2016-10-11T04:08:56.756Z,0
2016-10-11T04:09:56.769Z,0
2016-10-11T04:10:57.101Z,0
2016-10-11T04:11:56.795Z,0
2016-10-11T04:12:57.138Z,0
2016-10-11T04:13:57.463Z,0
2016-10-11T04:14:57.189Z,0
2016-10-11T04:15:57.185Z,0
2016-10-11T04:16:57.528Z,0
2016-10-11T04:17:57.225Z,0
2016-10-11T04:18:56.920Z,0
2016-10-11T04:19:56.947Z,0
2016-10-11T04:20:57.281Z,0
2016-10-11T04:21:56.661Z,0
2016-10-11T04:22:57.624Z,0
2016-10-11T04:23:57.332Z,0
2016-10-11T04:24:57.661Z,0
2016-10-11T04:25:57.677Z,0
2016-10-11T04:26:56.768Z,0
2016-10-11T04:27:57.404Z,0
2016-10-11T04:28:57.415Z,0
2016-10-11T04:29:57.439Z,0
2016-10-11T04:30:57.161Z,0
2016-10-11T04:31:57.154Z,0
2016-10-11T04:32:57.486Z,0
2016-10-11T04:33:57.846Z,0
2016-10-11T04:34:57.519Z,0
2016-10-11T04:35:57.562Z,0
2016-10-11T04:36:57.247Z,0
2016-10-11T04:37:57.906Z,0
2016-10-11T04:38:57.924Z,0
2016-10-11T04:39:56.984Z,0
2016-10-11T04:40:56.996Z,0
2016-10-11T04:41:57.960Z,0
2016-10-11T04:42:57.669Z,0
2016-10-11T04:43:57.679Z,0
2016-10-11T04:44:57.074Z,0
2016-10-11T04:45:57.718Z,0
2016-10-11T04:46:57.418Z,0
2016-10-11T04:47:57.779Z,0
2016-10-11T04:48:57.775Z,0
2016-10-11T04:49:58.146Z,0
2016-10-11T04:50:58.447Z,0
2016-10-11T04:51:58.159Z,0
2016-10-11T04:52:57.548Z,0
2016-10-11T04:53:57.881Z,0
2016-10-11T04:54:58.545Z,0
2016-10-11T04:55:58.244Z,0
2016-10-11T04:56:57.924Z,0
2016-10-11T04:57:57.631Z,0
2016-10-11T04:58:57.973Z,0
2016-10-11T04:59:57.980Z,0
2016-10-11T05:00:58.040Z,0
2016-10-11T05:01:58.038Z,0
2016-10-11T05:02:58.026Z,0
2016-10-11T05:03:58.394Z,0
2016-10-11T05:04:57.436Z,0
2016-10-11T05:05:58.088Z,0
2016-10-11T05:06:58.111Z,0
2016-10-11T05:07:58.138Z,0
2016-10-11T05:08:58.454Z,0
2016-10-11T05:09:58.160Z,0
2016-10-11T05:10:58.177Z,0
2016-10-11T05:11:58.196Z,0
2016-10-11T05:12:57.583Z,0
2016-10-11T05:13:58.222Z,0
2016-10-11T05:14:57.938Z,0
2016-10-11T05:15:57.946Z,0
2016-10-11T05:16:57.963Z,0
2016-10-11T05:17:58.308Z,0
2016-10-11T05:18:58.624Z,0
2016-10-11T05:19:58.649Z,0
2016-10-11T05:20:58.045Z,0
2016-10-11T05:21:58.379Z,0
2016-10-11T05:22:58.088Z,0
2016-10-11T05:23:58.740Z,0
2016-10-11T05:24:58.438Z,0
2016-10-11T05:25:58.752Z,0
2016-10-11T05:26:58.155Z,0
2016-10-11T05:27:58.493Z,0
2016-10-11T05:28:58.813Z,0
2016-10-11T05:29:58.219Z,0
2016-10-11T05:30:58.560Z,0
2016-10-11T05:31:58.546Z,0
2016-10-11T05:32:58.901Z,0
2016-10-11T05:33:58.597Z,0
2016-10-11T05:34:59.227Z,0
2016-10-11T05:35:58.315Z,0
2016-10-11T05:36:58.655Z,0
2016-10-11T05:37:59.291Z,0
2016-10-11T05:38:58.681Z,0
2016-10-11T05:39:58.065Z,0
2016-10-11T05:40:58.713Z,0
2016-10-11T05:41:58.414Z,0
2016-10-11T05:42:58.428Z,0
2016-10-11T05:43:59.080Z,0
2016-10-11T05:44:58.498Z,0
2016-10-11T05:45:58.802Z,0
2016-10-11T05:46:59.147Z,0
2016-10-11T05:47:59.267Z,0
2016-10-11T05:48:58.558Z,0
2016-10-11T05:49:58.560Z,0
2016-10-11T05:50:58.597Z,0
2016-10-11T05:51:58.601Z,0
2016-10-11T05:52:58.941Z,0
2016-10-11T05:53:58.645Z,0
2016-10-11T05:54:58.654Z,0
2016-10-11T05:55:58.977Z,0
2016-10-11T05:56:58.684Z,0
2016-10-11T05:57:59.665Z,0
2016-10-11T05:58:59.057Z,0
2016-10-11T05:59:58.749Z,0
2016-10-11T06:00:58.443Z,0
2016-10-11T06:01:58.793Z,0
2016-10-11T06:02:58.789Z,0
2016-10-11T06:03:58.810Z,0
2016-10-11T06:04:59.775Z,0
2016-10-11T06:05:59.163Z,0
2016-10-11T06:06:58.548Z,0
2016-10-11T06:07:59.517Z,0
2016-10-11T06:08:58.924Z,0
2016-10-11T06:09:59.562Z,0
2016-10-11T06:10:59.595Z,0
2016-10-11T06:11:58.635Z,0
2016-10-11T06:12:59.321Z,0
2016-10-11T06:13:58.998Z,0
2016-10-11T06:14:59.326Z,0
2016-10-11T06:15:59.026Z,0
2016-10-11T06:16:59.365Z,0
2016-10-11T06:17:58.749Z,5
2016-10-11T06:18:59.716Z,5
2016-10-11T06:19:59.103Z,5
2016-10-11T06:20:59.745Z,5
2016-10-11T06:21:59.450Z,5
2016-10-11T06:22:59.782Z,5
2016-10-11T06:23:59.489Z,5
2016-10-11T06:24:59.818Z,5
2016-10-11T06:25:58.917Z,5
2016-10-11T06:26:58.910Z,5
2016-10-11T06:27:59.880Z,5
2016-10-11T06:28:59.588Z,5
2016-10-11T06:29:59.297Z,5
2016-10-11T06:31:00.256Z,5
2016-10-11T06:32:00.282Z,5
2016-10-11T06:32:59.334Z,5
2016-10-11T06:33:59.675Z,5
2016-10-11T06:34:59.371Z,5
2016-10-11T06:36:00.020Z,5
2016-10-11T06:36:59.726Z,5
2016-10-11T06:38:00.065Z,5
2016-10-11T06:39:00.074Z,5
2016-10-11T06:39:59.469Z,5
2016-10-11T06:40:59.163Z,5
2016-10-11T06:41:59.819Z,5
2016-10-11T06:42:59.832Z,5
2016-10-11T06:43:59.674Z,5
2016-10-11T06:45:00.202Z,5
2016-10-11T06:46:00.207Z,5
2016-10-11T06:46:59.921Z,5
2016-10-11T06:48:00.264Z,5
2016-10-11T06:48:59.629Z,5
2016-10-11T06:49:59.646Z,5
2016-10-11T06:50:59.665Z,5
2016-10-11T06:51:59.681Z,5
2016-10-11T06:52:59.701Z,5
2016-10-11T06:54:00.664Z,5
2016-10-11T06:54:59.736Z,5
2016-10-11T06:56:00.381Z,5
2016-10-11T06:57:00.095Z,5
2016-10-11T06:58:00.111Z,5
2016-10-11T06:59:00.460Z,5
2016-10-11T06:59:59.841Z,5
2016-10-11T07:01:00.180Z,5
2016-10-11T07:01:59.548Z,5
2016-10-11T07:03:00.210Z,5
2016-10-11T07:04:00.535Z,5
2016-10-11T07:04:59.928Z,5
2016-10-11T07:06:00.575Z,5
2016-10-11T07:07:00.274Z,5
2016-10-11T07:08:59.678Z,5
2016-10-11T07:10:00.009Z,10
2016-10-11T07:11:00.354Z,10
2016-10-11T07:12:00.365Z,10
2016-10-11T07:13:00.385Z,10
2016-10-11T07:14:00.081Z,10
2016-10-11T07:15:00.432Z,10
2016-10-11T07:16:00.462Z,10
2016-10-11T07:17:00.764Z,10
2016-10-11T07:18:00.492Z,10
2016-10-11T07:19:00.818Z,10
2016-10-11T07:20:00.203Z,10
2016-10-11T07:21:00.218Z,10
2016-10-11T07:22:00.238Z,10
2016-10-11T07:23:00.910Z,10
2016-10-11T07:24:00.268Z,10
2016-10-11T07:24:59.978Z,10
2016-10-11T07:25:59.994Z,15
2016-10-11T07:27:00.960Z,15
2016-10-11T07:28:00.695Z,15
2016-10-11T07:29:00.358Z,15
2016-10-11T07:30:01.039Z,15
2016-10-11T07:31:00.088Z,15
2016-10-11T07:32:00.728Z,15
2016-10-11T07:33:00.766Z,15
2016-10-11T07:34:00.458Z,15
2016-10-11T07:35:01.101Z,15
2016-10-11T07:36:00.498Z,15
2016-10-11T07:37:00.850Z,20
2016-10-11T07:38:00.530Z,25
2016-10-11T07:39:00.861Z,20
2016-10-11T07:40:00.566Z,20
2016-10-11T07:41:00.899Z,20
2016-10-11T07:42:00.923Z,15
2016-10-11T07:43:00.633Z,15
2016-10-11T07:44:00.640Z,15
2016-10-11T07:45:00.973Z,15
2016-10-11T07:46:00.365Z,15
2016-10-11T07:47:01.012Z,15
2016-10-11T07:48:00.727Z,15
2016-10-11T07:49:00.739Z,15
2016-10-11T07:50:00.442Z,15
2016-10-11T07:51:01.087Z,20
2016-10-11T07:52:01.114Z,15
2016-10-11T07:53:01.444Z,20
2016-10-11T07:54:00.829Z,20
2016-10-11T07:55:01.174Z,20
2016-10-11T07:56:01.184Z,20
2016-10-11T07:57:00.893Z,20
2016-10-11T07:58:01.222Z,25
2016-10-11T07:59:00.928Z,25
2016-10-11T08:00:01.266Z,25
2016-10-11T08:01:01.300Z,20
2016-10-11T08:02:01.614Z,15
2016-10-11T08:03:01.326Z,10
2016-10-11T08:04:01.341Z,10
2016-10-11T08:05:01.673Z,15
2016-10-11T08:06:01.701Z,20
2016-10-11T08:07:01.085Z,25
2016-10-11T08:08:02.049Z,20
2016-10-11T08:09:01.440Z,20
2016-10-11T08:10:02.085Z,15
2016-10-11T08:11:01.822Z,20
2016-10-11T08:12:01.515Z,25
2016-10-11T08:13:01.198Z,20
2016-10-11T08:14:01.530Z,25
2016-10-11T08:15:00.920Z,20
2016-10-11T08:16:01.587Z,25
2016-10-11T08:17:01.593Z,25
2016-10-11T08:18:01.611Z,20
2016-10-11T08:19:01.314Z,15
2016-10-11T08:20:01.969Z,20
2016-10-11T08:21:01.045Z,20
2016-10-11T08:22:01.060Z,20
2016-10-11T08:23:02.340Z,65
2016-10-11T08:24:01.751Z,15
2016-10-11T08:25:02.060Z,20
2016-10-11T08:26:01.451Z,195
2016-10-11T08:27:01.154Z,20
2016-10-11T08:28:01.194Z,20
2016-10-11T08:29:01.823Z,25
2016-10-11T08:30:01.533Z,25
2016-10-11T08:31:01.601Z,30
2016-10-11T08:32:02.204Z,25
2016-10-11T08:33:01.910Z,45
2016-10-11T08:34:01.644Z,20
2016-10-11T08:35:01.313Z,25
2016-10-11T08:36:01.970Z,20
2016-10-11T08:37:01.669Z,35
2016-10-11T08:38:02.001Z,80
2016-10-11T08:39:02.026Z,40
2016-10-11T08:40:02.035Z,20
2016-10-11T08:41:01.742Z,20
2016-10-11T08:42:02.082Z,25
2016-10-11T08:43:02.100Z,25
2016-10-11T08:44:01.480Z,40
2016-10-11T08:45:02.136Z,20
2016-10-11T08:46:02.157Z,25
2016-10-11T08:47:02.490Z,45
2016-10-11T08:48:02.194Z,25
2016-10-11T08:49:02.238Z,25
2016-10-11T08:50:01.918Z,30
2016-10-11T08:51:02.256Z,65
2016-10-11T08:52:16.881Z,55
2016-10-11T08:53:02.618Z,35
2016-10-11T08:54:01.994Z,45
2016-10-11T08:55:02.662Z,50
2016-10-11T08:56:02.349Z,40
2016-10-11T08:57:02.693Z,60
2016-10-11T08:58:01.772Z,40
2016-10-11T08:59:02.731Z,30
2016-10-11T09:00:02.451Z,30
2016-10-11T09:01:02.482Z,50
2016-10-11T09:02:02.796Z,40
2016-10-11T09:03:02.200Z,55
2016-10-11T09:04:02.846Z,25
2016-10-11T09:05:02.223Z,45
2016-10-11T09:06:02.265Z,25
2016-10-11T09:07:02.583Z,20
2016-10-11T09:08:02.937Z,20
2016-10-11T09:09:02.314Z,20
2016-10-11T09:10:02.338Z,20
2016-10-11T09:11:03.004Z,20
2016-10-11T09:12:02.693Z,20
2016-10-11T09:13:02.398Z,15
2016-10-11T09:14:02.416Z,10
2016-10-11T09:15:02.444Z,10
2016-10-11T09:16:02.777Z,10
2016-10-11T09:17:02.477Z,10
2016-10-11T09:18:02.824Z,10
2016-10-11T09:19:02.523Z,10
2016-10-11T09:20:03.182Z,5
2016-10-11T09:21:02.569Z,5
2016-10-11T09:22:02.584Z,5
2016-10-11T09:23:02.916Z,5
2016-10-11T09:24:02.639Z,5
2016-10-11T09:25:02.962Z,5
2016-10-11T09:26:03.306Z,5
2016-10-11T09:27:03.008Z,5
2016-10-11T09:28:02.719Z,5
2016-10-11T09:29:03.045Z,5
2016-10-11T09:30:02.756Z,5
2016-10-11T09:31:03.406Z,10
2016-10-11T09:32:02.488Z,10
2016-10-11T09:33:03.449Z,10
2016-10-11T09:34:04.005Z,10
2016-10-11T09:35:03.174Z,10
2016-10-11T09:36:03.504Z,10
2016-10-11T09:37:03.215Z,15
2016-10-11T09:38:02.928Z,15
2016-10-11T09:39:03.259Z,20
2016-10-11T09:40:03.600Z,20
2016-10-11T09:41:03.640Z,25
2016-10-11T09:42:03.317Z,25
2016-10-11T09:43:02.711Z,25
2016-10-11T09:44:03.040Z,20
2016-10-11T09:45:03.381Z,15
2016-10-11T09:46:03.403Z,10
2016-10-11T09:47:03.548Z,10
2016-10-11T09:48:03.466Z,10
2016-10-11T09:49:03.152Z,5
2016-10-11T09:50:03.174Z,5
2016-10-11T09:51:02.878Z,5
2016-10-11T09:52:03.524Z,5
2016-10-11T09:53:03.255Z,5
2016-10-11T09:54:03.580Z,5
2016-10-11T09:55:04.231Z,5
2016-10-11T09:56:03.924Z,5
2016-10-11T09:57:03.632Z,5
2016-10-11T09:58:03.355Z,5
2016-10-11T09:59:03.456Z,5
2016-10-11T10:00:03.391Z,5
2016-10-11T10:01:03.408Z,0
2016-10-11T10:02:04.071Z,0
2016-10-11T10:03:03.763Z,0
2016-10-11T10:04:04.104Z,0
2016-10-11T10:05:03.305Z,0
2016-10-11T10:06:03.832Z,5
2016-10-11T10:07:03.530Z,5
2016-10-11T10:08:03.552Z,5
2016-10-11T10:09:03.570Z,5
2016-10-11T10:10:03.912Z,5
2016-10-11T10:11:03.614Z,5
2016-10-11T10:12:04.582Z,5
2016-10-11T10:13:03.652Z,5
2016-10-11T10:14:04.309Z,5
2016-10-11T10:15:03.732Z,5
2016-10-11T10:16:04.664Z,5
2016-10-11T10:17:03.741Z,5
2016-10-11T10:18:03.776Z,5
2016-10-11T10:19:04.252Z,5
2016-10-11T10:20:03.795Z,5
2016-10-11T10:21:04.151Z,5
2016-10-11T10:22:03.840Z,5
2016-10-11T10:23:04.178Z,5
2016-10-11T10:24:03.567Z,5
2016-10-11T10:25:04.254Z,5
2016-10-11T10:26:04.236Z,5
2016-10-11T10:27:04.635Z,5
2016-10-11T10:28:03.709Z,5
2016-10-11T10:29:03.996Z,5
2016-10-11T10:30:04.319Z,5
2016-10-11T10:31:04.035Z,5
2016-10-11T10:32:04.678Z,5
2016-10-11T10:33:04.697Z,5
2016-10-11T10:34:04.091Z,5
2016-10-11T10:35:04.494Z,5
2016-10-11T10:36:04.145Z,5
2016-10-11T10:37:04.171Z,10
2016-10-11T10:38:04.071Z,10
2016-10-11T10:39:05.029Z,15
2016-10-11T10:40:04.832Z,15
2016-10-11T10:41:04.535Z,15
2016-10-11T10:42:04.251Z,20
2016-10-11T10:43:04.579Z,25
2016-10-11T10:44:04.289Z,30
2016-10-11T10:45:04.623Z,30
2016-10-11T10:46:04.351Z,30
2016-10-11T10:47:04.662Z,35
2016-10-11T10:48:05.003Z,35
2016-10-11T10:49:04.389Z,40
2016-10-11T10:50:04.443Z,40
2016-10-11T10:51:04.750Z,40
2016-10-11T10:52:04.765Z,40
2016-10-11T10:53:04.470Z,40
2016-10-11T10:54:04.808Z,45
2016-10-11T10:55:04.831Z,45
2016-10-11T10:56:04.843Z,45
2016-10-11T10:57:05.193Z,50
2016-10-11T10:58:04.578Z,45
2016-10-11T10:59:04.916Z,40
2016-10-11T11:00:04.932Z,45
2016-10-11T11:01:04.637Z,40
2016-10-11T11:02:04.666Z,25
2016-10-11T11:03:04.994Z,15
2016-10-11T11:04:05.332Z,10
2016-10-11T11:05:05.038Z,10
2016-10-11T11:06:05.065Z,10
2016-10-11T11:07:04.444Z,10
2016-10-11T11:08:05.099Z,10
2016-10-11T11:09:04.813Z,10
2016-10-11T11:10:05.138Z,10
2016-10-11T11:11:05.475Z,10
2016-10-11T11:12:04.871Z,10
2016-10-11T11:13:04.577Z,10
2016-10-11T11:14:05.230Z,10
2016-10-11T11:15:05.893Z,10
2016-10-11T11:16:05.267Z,10
2016-10-11T11:17:05.289Z,10
2016-10-11T11:18:05.313Z,5
2016-10-11T11:19:05.648Z,5
2016-10-11T11:20:05.356Z,5
2016-10-11T11:21:04.766Z,5
2016-10-11T11:22:05.394Z,10
2016-10-11T11:23:05.106Z,10
2016-10-11T11:24:05.437Z,10
2016-10-11T11:25:05.768Z,10
2016-10-11T11:26:05.794Z,10
2016-10-11T11:27:05.816Z,10
2016-10-11T11:28:05.837Z,5
2016-10-11T11:29:05.572Z,5
2016-10-11T11:30:05.585Z,5
2016-10-11T11:31:06.229Z,5
2016-10-11T11:32:05.306Z,5
2016-10-11T11:33:05.639Z,5
2016-10-11T11:34:05.960Z,5
2016-10-11T11:35:05.982Z,5
2016-10-11T11:36:05.693Z,5
2016-10-11T11:37:06.040Z,5
2016-10-11T11:38:05.727Z,0
2016-10-11T11:39:05.751Z,0
2016-10-11T11:40:05.461Z,0
2016-10-11T11:41:05.479Z,0
2016-10-11T11:42:05.505Z,0
2016-10-11T11:43:05.830Z,0
2016-10-11T11:44:06.204Z,0
2016-10-11T11:45:05.246Z,0
2016-10-11T11:46:05.620Z,0
2016-10-11T11:47:05.291Z,0
2016-10-11T11:48:05.624Z,0
2016-10-11T11:49:05.964Z,0
2016-10-11T11:50:06.309Z,0
2016-10-11T11:51:06.000Z,0
2016-10-11T11:52:05.711Z,0
2016-10-11T11:53:06.042Z,0
2016-10-11T11:54:06.068Z,0
2016-10-11T11:55:06.112Z,0
2016-10-11T11:56:05.499Z,0
2016-10-11T11:57:06.134Z,0
2016-10-11T11:58:06.144Z,0
2016-10-11T11:59:05.860Z,0
2016-10-11T12:00:05.877Z,0
2016-10-11T12:01:05.580Z,0
2016-10-11T12:02:06.234Z,0
2016-10-11T12:03:06.285Z,0
2016-10-11T12:04:06.303Z,0
2016-10-11T12:05:06.289Z,0
2016-10-11T12:06:06.630Z,0
2016-10-11T12:07:06.647Z,0
2016-10-11T12:08:06.364Z,0
2016-10-11T12:09:05.760Z,0
2016-10-11T12:10:05.778Z,0
2016-10-11T12:11:06.107Z,0
2016-10-11T12:12:06.759Z,0
2016-10-11T12:13:06.159Z,0
2016-10-11T12:14:06.177Z,0
2016-10-11T12:15:06.188Z,0
2016-10-11T12:16:06.209Z,0
2016-10-11T12:17:06.223Z,0
2016-10-11T12:18:06.263Z,0
2016-10-11T12:19:06.903Z,0
2016-10-11T12:20:06.615Z,0
2016-10-11T12:21:06.644Z,0
2016-10-11T12:22:06.352Z,0
2016-10-11T12:23:06.685Z,0
2016-10-11T12:24:06.059Z,0
2016-10-11T12:25:06.733Z,0
2016-10-11T12:26:06.110Z,0
2016-10-11T12:27:06.470Z,0
2016-10-11T12:28:06.470Z,0
2016-10-11T12:29:06.178Z,0
2016-10-11T12:30:06.819Z,0
2016-10-11T12:31:06.836Z,0
2016-10-11T12:32:06.857Z,0
2016-10-11T12:33:06.577Z,0
2016-10-11T12:34:06.906Z,0
2016-10-11T12:35:07.235Z,0
2016-10-11T12:36:06.937Z,0
2016-10-11T12:37:06.962Z,0
2016-10-11T12:38:06.992Z,0
2016-10-11T12:39:07.003Z,0
2016-10-11T12:40:06.715Z,0
2016-10-11T12:41:06.739Z,0
2016-10-11T12:42:07.366Z,0
2016-10-11T12:43:07.398Z,0
2016-10-11T12:44:06.794Z,0
2016-10-11T12:45:07.121Z,0
2016-10-11T12:46:06.828Z,5
2016-10-11T12:47:06.857Z,5
2016-10-11T12:48:07.494Z,5
2016-10-11T12:49:07.536Z,5
2016-10-11T12:50:06.898Z,5
2016-10-11T12:51:07.235Z,5
2016-10-11T12:52:07.605Z,5
2016-10-11T12:53:06.958Z,5
2016-10-11T12:54:07.295Z,5
2016-10-11T12:55:07.624Z,10
2016-10-11T12:56:07.343Z,10
2016-10-11T12:57:07.042Z,5
2016-10-11T12:58:07.062Z,5
2016-10-11T12:59:07.395Z,5
2016-10-11T13:00:07.756Z,5
2016-10-11T13:01:07.425Z,5
2016-10-11T13:02:07.131Z,5
2016-10-11T13:03:06.833Z,5
2016-10-11T13:04:07.498Z,5
2016-10-11T13:05:07.517Z,5
2016-10-11T13:06:07.520Z,5
2016-10-11T13:07:07.546Z,5
2016-10-11T13:08:07.558Z,5
2016-10-11T13:09:07.895Z,10
2016-10-11T13:10:07.589Z,10
2016-10-11T13:11:07.300Z,10
2016-10-11T13:12:07.641Z,10
2016-10-11T13:13:07.657Z,10
2016-10-11T13:14:07.675Z,10
2016-10-11T13:15:07.702Z,5
2016-10-11T13:16:07.706Z,5
2016-10-11T13:17:07.730Z,5
2016-10-11T13:18:08.430Z,5
2016-10-11T13:19:07.443Z,5
2016-10-11T13:20:07.469Z,5
2016-10-11T13:21:07.811Z,5
2016-10-11T13:22:07.830Z,5
2016-10-11T13:23:08.152Z,5
2016-10-11T13:24:07.541Z,5
2016-10-11T13:25:07.878Z,5
2016-10-11T13:26:07.903Z,5
2016-10-11T13:27:07.286Z,5
2016-10-11T13:28:07.926Z,5
2016-10-11T13:29:08.272Z,5
2016-10-11T13:30:08.317Z,5
2016-10-11T13:31:07.672Z,5
2016-10-11T13:32:08.012Z,5
2016-10-11T13:33:07.410Z,5
2016-10-11T13:34:07.731Z,5
2016-10-11T13:35:08.377Z,5
2016-10-11T13:36:08.090Z,5
2016-10-11T13:37:08.108Z,5
2016-10-11T13:38:08.121Z,5
2016-10-11T13:39:08.137Z,5
2016-10-11T13:40:08.158Z,5
2016-10-11T13:41:08.063Z,5
2016-10-11T13:42:07.887Z,5
2016-10-11T13:43:08.538Z,5
2016-10-11T13:44:08.548Z,5
2016-10-11T13:45:07.934Z,5
2016-10-11T13:46:08.273Z,5
2016-10-11T13:47:07.664Z,0
2016-10-11T13:48:08.637Z,0
2016-10-11T13:49:08.654Z,0
2016-10-11T13:50:08.358Z,0
2016-10-11T13:51:08.366Z,0
2016-10-11T13:52:08.387Z,0
2016-10-11T13:53:08.410Z,0
2016-10-11T13:54:08.738Z,0
2016-10-11T13:55:08.120Z,0
2016-10-11T13:56:08.779Z,0
2016-10-11T13:57:08.793Z,0
2016-10-11T13:58:08.501Z,0
2016-10-11T13:59:08.510Z,0
2016-10-11T14:00:08.535Z,0
2016-10-11T14:01:08.862Z,0
2016-10-11T14:02:08.266Z,0
2016-10-11T14:03:08.601Z,0
2016-10-11T14:04:08.294Z,0
2016-10-11T14:05:09.047Z,5
2016-10-11T14:06:08.349Z,5
2016-10-11T14:07:08.669Z,5
2016-10-11T14:08:08.373Z,5
2016-10-11T14:09:08.399Z,5
2016-10-11T14:10:08.413Z,5
2016-10-11T14:11:08.113Z,5
2016-10-11T14:12:08.446Z,5
2016-10-11T14:13:08.473Z,5
2016-10-11T14:14:09.114Z,5
2016-10-11T14:15:08.236Z,5
2016-10-11T14:16:09.149Z,5
2016-10-11T14:17:09.176Z,5
2016-10-11T14:18:08.693Z,5
2016-10-11T14:19:08.901Z,5
2016-10-11T14:20:08.918Z,5
2016-10-11T14:21:08.615Z,5
2016-10-11T14:22:08.949Z,5
2016-10-11T14:23:09.182Z,5
2016-10-11T14:24:08.679Z,5
2016-10-11T14:25:09.330Z,5
2016-10-11T14:26:09.036Z,5
2016-10-11T14:27:08.728Z,5
2016-10-11T14:28:08.750Z,0
2016-10-11T14:29:09.086Z,0
2016-10-11T14:30:08.790Z,0
2016-10-11T14:31:09.121Z,0
2016-10-11T14:32:08.819Z,0
2016-10-11T14:33:08.555Z,0
2016-10-11T14:34:08.872Z,0
2016-10-11T14:35:09.197Z,0
2016-10-11T14:36:08.896Z,0
2016-10-11T14:37:09.240Z,0
2016-10-11T14:38:08.947Z,0
2016-10-11T14:39:09.589Z,0
2016-10-11T14:40:09.530Z,0
2016-10-11T14:41:09.311Z,0